PWSweather.com
Personal Weather Stations
Station Observations
INORDPAS37
Bondues, BonduesFR 59910

BonduesBonduesFR 59910

Lat: 50.7, Lon: 3.09

Elevation: 102

Station Type: Netatmo

http://bondues.meteoamikuze.com

High Low Average
Temperature 74.5°F23.6°C 59.7°F15.4°C 66.1°F18.9°C
Dew Point 55.8°F13.2°C 46.2°F7.9°C 50.6°F10.3°C
Winds 9.4 mph 15.1 kmh 1.3 mph 2.1 kmh 3.0 mph S4.8 kmh S
Wind Gusts 23.7 mph38.1 kmh 4.3 mph6.9 kmh 8.0 mph12.9 kmh
Humidity 69% 55% 62%
Pressure 29.88 in1011.9 mb 29.79 in1008.8 mb -
Precipitation 0.20 in5.1 mm - -
Hour Temp Dew Point Humidity Winds Wind Gusts Pressure Precip Precip Rate Daily Precip Total
12:06 AM 62.1°F16.7°C 46.9°F8.3°C 62% 2.5 mph SSE4.0 kmh SSE 4.9 mph7.9 kmh 29.82 in1009.8 mb 0.00 in0.0 mm 0.00 in0.0 mm 0.00 in0.0 mm
12:25 AM 61.9°F16.6°C 46.8°F8.2°C 62% 1.8 mph SE2.9 kmh SE 5.6 mph9.0 kmh 29.82 in1009.8 mb 0.00 in0.0 mm 0.00 in0.0 mm 0.00 in0.0 mm
12:46 AM 61.9°F16.6°C 46.8°F8.2°C 62% 1.8 mph SE2.9 kmh SE 4.3 mph6.9 kmh 29.82 in1009.8 mb 0.00 in0.0 mm 0.00 in0.0 mm 0.00 in0.0 mm
01:06 AM 61.9°F16.6°C 46.8°F8.2°C 62% 2.5 mph SE4.0 kmh SE 4.9 mph7.9 kmh 29.82 in1009.8 mb 0.00 in0.0 mm 0.00 in0.0 mm 0.00 in0.0 mm
01:26 AM 61.9°F16.6°C 47.1°F8.4°C 63% 1.3 mph SE2.1 kmh SE 4.3 mph6.9 kmh 29.81 in1009.5 mb 0.00 in0.0 mm 0.00 in0.0 mm 0.00 in0.0 mm
01:46 AM 61.7°F16.5°C 46.6°F8.1°C 62% 1.3 mph SE2.1 kmh SE 4.9 mph7.9 kmh 29.81 in1009.5 mb 0.00 in0.0 mm 0.00 in0.0 mm 0.00 in0.0 mm
02:06 AM 62.1°F16.7°C 46.9°F8.3°C 62% 1.8 mph SE2.9 kmh SE 4.3 mph6.9 kmh 29.80 in1009.1 mb 0.00 in0.0 mm 0.00 in0.0 mm 0.00 in0.0 mm
02:28 AM 62.6°F17.0°C 47.3°F8.5°C 62% 2.5 mph SE4.0 kmh SE 7.4 mph11.9 kmh 29.80 in1009.1 mb 0.00 in0.0 mm 0.00 in0.0 mm 0.00 in0.0 mm
02:45 AM 62.6°F17.0°C 47.3°F8.5°C 62% 2.5 mph SSE4.0 kmh SSE 5.6 mph9.0 kmh 29.80 in1009.1 mb 0.00 in0.0 mm 0.00 in0.0 mm 0.00 in0.0 mm
03:05 AM 62.8°F17.1°C 47.1°F8.4°C 61% 2.5 mph SSE4.0 kmh SSE 7.4 mph11.9 kmh 29.80 in1009.1 mb 0.00 in0.0 mm 0.00 in0.0 mm 0.00 in0.0 mm
03:26 AM 63.5°F17.5°C 47.8°F8.8°C 61% 2.5 mph SSE4.0 kmh SSE 4.9 mph7.9 kmh 29.80 in1009.1 mb 0.00 in0.0 mm 0.00 in0.0 mm 0.00 in0.0 mm
03:45 AM 63.9°F17.7°C 48.2°F9.0°C 61% 1.8 mph S2.9 kmh S 5.6 mph9.0 kmh 29.80 in1009.1 mb 0.00 in0.0 mm 0.00 in0.0 mm 0.00 in0.0 mm
04:06 AM 63.9°F17.7°C 47.8°F8.8°C 60% 1.8 mph S2.9 kmh S 4.9 mph7.9 kmh 29.79 in1008.8 mb 0.00 in0.0 mm 0.00 in0.0 mm 0.00 in0.0 mm
04:25 AM 63.9°F17.7°C 47.8°F8.8°C 60% 2.5 mph S4.0 kmh S 7.4 mph11.9 kmh 29.79 in1008.8 mb 0.00 in0.0 mm 0.00 in0.0 mm 0.00 in0.0 mm
04:46 AM 63.9°F17.7°C 47.8°F8.8°C 60% 2.5 mph SSE4.0 kmh SSE 7.4 mph11.9 kmh 29.79 in1008.8 mb 0.00 in0.0 mm 0.00 in0.0 mm 0.00 in0.0 mm
05:06 AM 63.3°F17.4°C 47.3°F8.5°C 60% 1.8 mph SSE2.9 kmh SSE 4.9 mph7.9 kmh 29.79 in1008.8 mb 0.00 in0.0 mm 0.00 in0.0 mm 0.00 in0.0 mm
05:26 AM 62.8°F17.1°C 46.8°F8.2°C 60% 2.5 mph S4.0 kmh S 9.8 mph15.8 kmh 29.80 in1009.1 mb 0.00 in0.0 mm 0.00 in0.0 mm 0.00 in0.0 mm
05:48 AM 62.8°F17.1°C 47.5°F8.6°C 62% 3.8 mph SSW6.1 kmh SSW 9.8 mph15.8 kmh 29.80 in1009.1 mb 0.01 in0.3 mm 0.03 in0.8 mm 0.01 in0.3 mm
06:08 AM 61.2°F16.2°C 46.8°F8.2°C 64% 3.8 mph SW6.1 kmh SW 6.9 mph11.1 kmh 29.80 in1009.1 mb 0.08 in2.0 mm 0.10 in2.5 mm 0.07 in1.8 mm
06:28 AM 60.1°F15.6°C 46.2°F7.9°C 65% 5.6 mph SSW9.0 kmh SSW 13.6 mph21.9 kmh 29.81 in1009.5 mb 0.09 in2.3 mm 0.05 in1.3 mm 0.09 in2.3 mm
06:48 AM 59.9°F15.5°C 46.4°F8.0°C 66% 4.9 mph S7.9 kmh S 10.5 mph16.9 kmh 29.80 in1009.1 mb 0.09 in2.3 mm 0.00 in0.0 mm 0.10 in2.5 mm
07:09 AM 59.7°F15.4°C 46.2°F7.9°C 66% 1.8 mph S2.9 kmh S 4.3 mph6.9 kmh 29.81 in1009.5 mb 0.03 in0.8 mm 0.00 in0.0 mm 0.10 in2.5 mm
07:28 AM 59.7°F15.4°C 46.8°F8.2°C 67% 3.1 mph S5.0 kmh S 9.4 mph15.1 kmh 29.82 in1009.8 mb 0.01 in0.3 mm 0.00 in0.0 mm 0.10 in2.5 mm
07:49 AM 59.7°F15.4°C 47.1°F8.4°C 68% 3.1 mph SSE5.0 kmh SSE 8.7 mph14.0 kmh 29.82 in1009.8 mb 0.00 in0.0 mm 0.00 in0.0 mm 0.10 in2.5 mm
08:09 AM 59.9°F15.5°C 47.3°F8.5°C 68% 3.8 mph S6.1 kmh S 8.7 mph14.0 kmh 29.83 in1010.2 mb 0.00 in0.0 mm 0.00 in0.0 mm 0.10 in2.5 mm
08:29 AM 60.1°F15.6°C 47.8°F8.8°C 69% 3.1 mph S5.0 kmh S 8.1 mph13.0 kmh 29.83 in1010.2 mb 0.00 in0.0 mm 0.00 in0.0 mm 0.10 in2.5 mm
08:39 AM 60.4°F15.8°C 48.2°F9.0°C 69% 3.1 mph SSW5.0 kmh SSW 6.9 mph11.1 kmh 29.83 in1010.2 mb 0.00 in0.0 mm 0.00 in0.0 mm 0.10 in2.5 mm
09:06 AM 62.1°F16.7°C 49.6°F9.8°C 69% 9.4 mph WSW15.1 kmh WSW 22.4 mph36.0 kmh 29.83 in1010.2 mb 0.00 in0.0 mm 0.00 in0.0 mm 0.10 in2.5 mm
09:26 AM 63.3°F17.4°C 50.9°F10.5°C 69% 3.1 mph S5.0 kmh S 8.7 mph14.0 kmh 29.83 in1010.2 mb 0.00 in0.0 mm 0.00 in0.0 mm 0.10 in2.5 mm
09:46 AM 64.4°F18.0°C 52.0°F11.1°C 69% 1.8 mph SSE2.9 kmh SSE 5.6 mph9.0 kmh 29.83 in1010.2 mb 0.00 in0.0 mm 0.00 in0.0 mm 0.10 in2.5 mm
10:06 AM 65.5°F18.6°C 52.5°F11.4°C 68% 4.9 mph S7.9 kmh S 9.8 mph15.8 kmh 29.82 in1009.8 mb 0.00 in0.0 mm 0.00 in0.0 mm 0.10 in2.5 mm
10:27 AM 66.4°F19.1°C 53.1°F11.7°C 67% 3.8 mph S6.1 kmh S 9.8 mph15.8 kmh 29.82 in1009.8 mb 0.00 in0.0 mm 0.00 in0.0 mm 0.10 in2.5 mm
10:46 AM 67.6°F19.8°C 53.8°F12.1°C 66% 3.1 mph SSE5.0 kmh SSE 7.4 mph11.9 kmh 29.82 in1009.8 mb 0.00 in0.0 mm 0.00 in0.0 mm 0.10 in2.5 mm
11:07 AM 68.5°F20.3°C 54.3°F12.4°C 65% 3.1 mph S5.0 kmh S 6.9 mph11.1 kmh 29.81 in1009.5 mb 0.00 in0.0 mm 0.00 in0.0 mm 0.10 in2.5 mm
11:19 AM 68.9°F20.5°C 54.7°F12.6°C 65% 3.8 mph S6.1 kmh S 8.7 mph14.0 kmh 29.81 in1009.5 mb 0.00 in0.0 mm 0.00 in0.0 mm 0.10 in2.5 mm
11:39 AM 69.4°F20.8°C 54.7°F12.6°C 64% 4.3 mph S6.9 kmh S 8.1 mph13.0 kmh 29.80 in1009.1 mb 0.00 in0.0 mm 0.00 in0.0 mm 0.10 in2.5 mm
11:59 AM 70.0°F21.1°C 54.3°F12.4°C 62% 4.9 mph S7.9 kmh S 9.4 mph15.1 kmh 29.80 in1009.1 mb 0.00 in0.0 mm 0.00 in0.0 mm 0.10 in2.5 mm
12:20 PM 70.3°F21.3°C 54.7°F12.6°C 62% 3.8 mph S6.1 kmh S 9.4 mph15.1 kmh 29.80 in1009.1 mb 0.00 in0.0 mm 0.00 in0.0 mm 0.10 in2.5 mm
12:40 PM 71.1°F21.7°C 55.0°F12.8°C 61% 3.1 mph SSE5.0 kmh SSE 8.1 mph13.0 kmh 29.79 in1008.8 mb 0.00 in0.0 mm 0.00 in0.0 mm 0.10 in2.5 mm
01:00 PM 71.6°F22.0°C 55.0°F12.8°C 60% 4.3 mph S6.9 kmh S 10.5 mph16.9 kmh 29.79 in1008.8 mb 0.00 in0.0 mm 0.00 in0.0 mm 0.10 in2.5 mm
01:20 PM 72.0°F22.2°C 55.4°F13.0°C 60% 3.8 mph S6.1 kmh S 9.4 mph15.1 kmh 29.79 in1008.8 mb 0.00 in0.0 mm 0.00 in0.0 mm 0.10 in2.5 mm
01:40 PM 72.5°F22.5°C 55.0°F12.8°C 58% 4.3 mph S6.9 kmh S 9.8 mph15.8 kmh 29.79 in1008.8 mb 0.00 in0.0 mm 0.00 in0.0 mm 0.10 in2.5 mm
02:00 PM 73.0°F22.8°C 55.6°F13.1°C 58% 3.8 mph S6.1 kmh S 9.8 mph15.8 kmh 29.79 in1008.8 mb 0.00 in0.0 mm 0.00 in0.0 mm 0.10 in2.5 mm
02:21 PM 73.4°F23.0°C 55.4°F13.0°C 57% 4.3 mph S6.9 kmh S 9.8 mph15.8 kmh 29.79 in1008.8 mb 0.00 in0.0 mm 0.00 in0.0 mm 0.10 in2.5 mm
02:41 PM 73.8°F23.2°C 55.8°F13.2°C 57% 3.1 mph S5.0 kmh S 8.1 mph13.0 kmh 29.79 in1008.8 mb 0.00 in0.0 mm 0.00 in0.0 mm 0.10 in2.5 mm
03:01 PM 74.1°F23.4°C 55.8°F13.2°C 56% 3.8 mph S6.1 kmh S 11.2 mph18.0 kmh 29.79 in1008.8 mb 0.00 in0.0 mm 0.00 in0.0 mm 0.10 in2.5 mm
03:22 PM 74.3°F23.5°C 55.4°F13.0°C 55% 3.1 mph S5.0 kmh S 8.7 mph14.0 kmh 29.80 in1009.1 mb 0.00 in0.0 mm 0.00 in0.0 mm 0.10 in2.5 mm
03:41 PM 74.5°F23.6°C 55.6°F13.1°C 55% 3.1 mph S5.0 kmh S 8.1 mph13.0 kmh 29.79 in1008.8 mb 0.00 in0.0 mm 0.00 in0.0 mm 0.10 in2.5 mm
04:02 PM 73.8°F23.2°C 54.9°F12.7°C 55% 3.1 mph S5.0 kmh S 9.4 mph15.1 kmh 29.79 in1008.8 mb 0.00 in0.0 mm 0.00 in0.0 mm 0.10 in2.5 mm
04:21 PM 73.2°F22.9°C 54.5°F12.5°C 55% 3.1 mph S5.0 kmh S 6.9 mph11.1 kmh 29.80 in1009.1 mb 0.00 in0.0 mm 0.00 in0.0 mm 0.10 in2.5 mm
04:42 PM 72.5°F22.5°C 53.8°F12.1°C 55% 2.5 mph SSE4.0 kmh SSE 6.9 mph11.1 kmh 29.80 in1009.1 mb 0.00 in0.0 mm 0.00 in0.0 mm 0.10 in2.5 mm
05:02 PM 72.1°F22.3°C 53.4°F11.9°C 55% 2.5 mph SSE4.0 kmh SSE 5.6 mph9.0 kmh 29.80 in1009.1 mb 0.00 in0.0 mm 0.00 in0.0 mm 0.10 in2.5 mm
05:22 PM 72.0°F22.2°C 53.6°F12.0°C 56% 2.5 mph SSE4.0 kmh SSE 6.9 mph11.1 kmh 29.80 in1009.1 mb 0.00 in0.0 mm 0.00 in0.0 mm 0.10 in2.5 mm
05:43 PM 71.2°F21.8°C 53.1°F11.7°C 56% 1.8 mph SE2.9 kmh SE 4.3 mph6.9 kmh 29.81 in1009.5 mb 0.00 in0.0 mm 0.00 in0.0 mm 0.10 in2.5 mm
06:03 PM 70.5°F21.4°C 52.7°F11.5°C 57% 1.8 mph SE2.9 kmh SE 7.4 mph11.9 kmh 29.81 in1009.5 mb 0.00 in0.0 mm 0.00 in0.0 mm 0.10 in2.5 mm
06:23 PM 70.0°F21.1°C 52.3°F11.3°C 57% 1.8 mph SE2.9 kmh SE 4.9 mph7.9 kmh 29.82 in1009.8 mb 0.00 in0.0 mm 0.00 in0.0 mm 0.10 in2.5 mm
06:43 PM 69.8°F21.0°C 52.2°F11.2°C 57% 1.8 mph SE2.9 kmh SE 4.3 mph6.9 kmh 29.83 in1010.2 mb 0.00 in0.0 mm 0.00 in0.0 mm 0.10 in2.5 mm
07:04 PM 69.4°F20.8°C 52.2°F11.2°C 58% 2.5 mph SE4.0 kmh SE 5.6 mph9.0 kmh 29.82 in1009.8 mb 0.00 in0.0 mm 0.00 in0.0 mm 0.10 in2.5 mm
07:23 PM 69.1°F20.6°C 51.8°F11.0°C 58% 1.8 mph SE2.9 kmh SE 4.3 mph6.9 kmh 29.81 in1009.5 mb 0.00 in0.0 mm 0.00 in0.0 mm 0.10 in2.5 mm
07:44 PM 68.9°F20.5°C 51.6°F10.9°C 58% 1.8 mph SSE2.9 kmh SSE 5.6 mph9.0 kmh 29.82 in1009.8 mb 0.00 in0.0 mm 0.00 in0.0 mm 0.10 in2.5 mm
08:08 PM 68.4°F20.2°C 51.1°F10.6°C 58% 2.5 mph SW4.0 kmh SW 6.9 mph11.1 kmh 29.83 in1010.2 mb 0.01 in0.3 mm 0.02 in0.5 mm 0.11 in2.8 mm
08:25 PM 66.9°F19.4°C 50.7°F10.4°C 60% 3.1 mph S5.0 kmh S 8.1 mph13.0 kmh 29.83 in1010.2 mb 0.06 in1.5 mm 0.18 in4.6 mm 0.17 in4.3 mm
08:45 PM 65.1°F18.4°C 49.8°F9.9°C 62% 3.8 mph SSW6.1 kmh SSW 8.7 mph14.0 kmh 29.84 in1010.5 mb 0.09 in2.3 mm 0.07 in1.8 mm 0.19 in4.8 mm
09:05 PM 64.2°F17.9°C 49.8°F9.9°C 64% 1.8 mph SSW2.9 kmh SSW 4.3 mph6.9 kmh 29.83 in1010.2 mb 0.08 in2.0 mm 0.00 in0.0 mm 0.19 in4.8 mm
09:26 PM 63.7°F17.6°C 49.6°F9.8°C 65% 1.3 mph SSW2.1 kmh SSW 4.3 mph6.9 kmh 29.83 in1010.2 mb 0.02 in0.5 mm 0.00 in0.0 mm 0.19 in4.8 mm
09:46 PM 63.3°F17.4°C 49.3°F9.6°C 65% 2.5 mph S4.0 kmh S 9.4 mph15.1 kmh 29.83 in1010.2 mb 0.00 in0.0 mm 0.00 in0.0 mm 0.19 in4.8 mm
10:08 PM 63.5°F17.5°C 49.8°F9.9°C 66% 3.1 mph S5.0 kmh S 14.3 mph23.0 kmh 29.86 in1011.2 mb 0.00 in0.0 mm 0.00 in0.0 mm 0.19 in4.8 mm
10:20 PM 63.5°F17.5°C 49.8°F9.9°C 66% 8.1 mph SW13.0 kmh SW 23.7 mph38.1 kmh 29.85 in1010.8 mb 0.01 in0.3 mm 0.06 in1.5 mm 0.20 in5.1 mm
10:40 PM 62.8°F17.1°C 49.3°F9.6°C 66% 5.6 mph SW9.0 kmh SW 10.5 mph16.9 kmh 29.86 in1011.2 mb 0.01 in0.3 mm 0.00 in0.0 mm 0.20 in5.1 mm
11:00 PM 62.2°F16.8°C 48.2°F9.0°C 65% 4.9 mph SW7.9 kmh SW 12.5 mph20.1 kmh 29.85 in1010.8 mb 0.01 in0.3 mm 0.00 in0.0 mm 0.19 in4.8 mm
11:21 PM 61.7°F16.5°C 48.2°F9.0°C 66% 3.8 mph SSW6.1 kmh SSW 8.7 mph14.0 kmh 29.85 in1010.8 mb 0.00 in0.0 mm 0.00 in0.0 mm 0.19 in4.8 mm
11:41 PM 61.5°F16.4°C 48.0°F8.9°C 66% 3.8 mph SW6.1 kmh SW 11.9 mph19.2 kmh 29.88 in1011.9 mb 0.00 in0.0 mm 0.00 in0.0 mm 0.19 in4.8 mm